createdAt,value
2022-11-05T00:00:41.766Z,98389.28
2022-11-05T00:03:28.288Z,98390.91
2022-11-05T00:06:14.288Z,98392.56
2022-11-05T00:09:01.226Z,98383.69
2022-11-05T00:11:43.916Z,98393.53
2022-11-05T00:14:32.031Z,98395.16
2022-11-05T00:17:00.727Z,98401.28
2022-11-05T00:19:29.293Z,98406.31
2022-11-05T00:22:15.179Z,98406.66
2022-11-05T00:25:01.263Z,98408.25
2022-11-05T00:27:29.860Z,98400.56
2022-11-05T00:29:59.906Z,98404.88
2022-11-05T00:32:28.677Z,98403.72
2022-11-05T00:34:57.259Z,98404.53
2022-11-05T00:37:26.210Z,98400.31
2022-11-05T00:39:54.798Z,98413.44
2022-11-05T00:42:41.021Z,98414.41
2022-11-05T00:45:11.983Z,98424.06
2022-11-05T00:47:58.650Z,98426.91
2022-11-05T00:50:28.291Z,98427.22
2022-11-05T00:53:00.878Z,98428.28
2022-11-05T00:55:38.254Z,98436.72
2022-11-05T00:58:10.293Z,98434.75
2022-11-05T01:00:44.329Z,98438.41
2022-11-05T01:03:16.970Z,98443.03
2022-11-05T01:05:48.115Z,98442.94
2022-11-05T01:08:23.160Z,98451.22
2022-11-05T01:10:54.382Z,98455.41
2022-11-05T01:13:26.275Z,98440.50
2022-11-05T01:15:57.431Z,98451.94
2022-11-05T01:18:26.596Z,98442.44
2022-11-05T01:20:55.629Z,98442.28
2022-11-05T01:23:24.256Z,98445.53
2022-11-05T01:25:53.056Z,98446.50
2022-11-05T01:28:21.846Z,98452.56
2022-11-05T01:30:58.818Z,98462.78
2022-11-05T01:33:27.512Z,98463.94
2022-11-05T01:35:56.257Z,98467.41
2022-11-05T01:38:25.032Z,98474.63
2022-11-05T01:40:53.838Z,98478.41
2022-11-05T01:43:25.100Z,98486.59
2022-11-05T01:46:00.392Z,98486.13
2022-11-05T01:48:36.481Z,98490.75
2022-11-05T01:51:09.902Z,98493.63
2022-11-05T01:53:44.737Z,98497.53
2022-11-05T01:56:18.117Z,98508.22
2022-11-05T01:58:52.017Z,98515.78
2022-11-05T02:01:22.572Z,98511.09
2022-11-05T02:03:56.479Z,98519.78
2022-11-05T02:06:26.975Z,98514.81
2022-11-05T02:09:03.088Z,98516.34
2022-11-05T02:11:32.060Z,98510.28
2022-11-05T02:17:15.120Z,98508.88
2022-11-05T02:20:29.696Z,98512.16
2022-11-05T02:24:00.372Z,98511.09
2022-11-05T02:27:14.116Z,98515.38
2022-11-05T02:30:40.607Z,98529.00
2022-11-05T02:33:40.035Z,98533.53
2022-11-05T02:36:41.204Z,98533.59
2022-11-05T02:39:32.984Z,98538.41
2022-11-05T02:42:17.124Z,98539.56
2022-11-05T02:44:58.376Z,98539.06
2022-11-05T02:47:39.148Z,98535.31
2022-11-05T02:50:25.406Z,98543.50
2022-11-05T02:53:03.412Z,98546.97
2022-11-05T02:55:38.639Z,98541.63
2022-11-05T02:58:08.317Z,98543.84
2022-11-05T03:00:46.028Z,98550.00
2022-11-05T03:03:25.112Z,98544.66
2022-11-05T03:06:47.616Z,98548.94
2022-11-05T03:10:14.606Z,98551.06
2022-11-05T03:13:03.032Z,98566.03
2022-11-05T03:15:52.728Z,98562.56
2022-11-05T03:18:31.626Z,98562.00
2022-11-05T03:21:10.853Z,98560.13
2022-11-05T03:23:50.225Z,98560.84
2022-11-05T03:26:28.334Z,98570.84
2022-11-05T03:29:03.003Z,98568.31
2022-11-05T03:31:32.446Z,98566.75
2022-11-05T03:34:04.652Z,98565.13
2022-11-05T03:36:43.036Z,98572.09
2022-11-05T03:39:19.047Z,98578.75
2022-11-05T03:41:53.463Z,98574.34
2022-11-05T03:44:29.477Z,98579.09
2022-11-05T03:47:06.665Z,98574.81
2022-11-05T03:49:44.307Z,98579.94
2022-11-05T03:52:20.253Z,98582.94
2022-11-05T03:54:49.064Z,98594.13
2022-11-05T03:57:26.239Z,98587.47
2022-11-05T03:59:59.342Z,98599.38
2022-11-05T04:02:28.989Z,98609.38
2022-11-05T04:04:57.844Z,98615.66
2022-11-05T04:07:59.735Z,98609.72
2022-11-05T04:11:00.024Z,98613.06
2022-11-05T04:13:29.199Z,98623.06
2022-11-05T04:16:15.694Z,98626.41
2022-11-05T04:18:44.892Z,98637.22
2022-11-05T04:21:31.395Z,98636.28
2022-11-05T04:24:10.474Z,98641.97
2022-11-05T04:26:41.876Z,98647.66
2022-11-05T04:29:24.679Z,98642.31
2022-11-05T04:31:53.459Z,98646.28
2022-11-05T04:34:23.170Z,98648.47
2022-11-05T04:36:54.624Z,98654.31
2022-11-05T04:39:24.651Z,98649.31
2022-11-05T04:41:53.287Z,98652.53
2022-11-05T04:44:21.920Z,98661.63
2022-11-05T04:46:50.622Z,98658.69
2022-11-05T04:49:19.346Z,98664.50
2022-11-05T04:51:48.076Z,98665.34
2022-11-05T04:54:16.789Z,98670.34
2022-11-05T04:56:46.830Z,98663.69
2022-11-05T04:59:15.524Z,98672.88
2022-11-05T05:01:44.322Z,98663.59
2022-11-05T05:04:12.930Z,98665.41
2022-11-05T05:06:41.624Z,98670.56
2022-11-05T05:09:10.316Z,98678.34
2022-11-05T05:11:38.926Z,98674.03
2022-11-05T05:14:09.767Z,98682.06
2022-11-05T05:16:38.413Z,98686.25
2022-11-05T05:19:07.103Z,98688.38
2022-11-05T05:21:40.969Z,98688.94
2022-11-05T05:24:13.198Z,98688.22
2022-11-05T05:26:45.472Z,98698.69
2022-11-05T05:29:16.319Z,98697.06
2022-11-05T05:31:46.077Z,98697.19
2022-11-05T05:34:16.184Z,98697.75
2022-11-05T05:36:44.861Z,98713.13
2022-11-05T05:39:14.481Z,98716.59
2022-11-05T05:41:43.294Z,98719.03
2022-11-05T05:44:12.105Z,98731.34
2022-11-05T05:46:42.285Z,98728.09
2022-11-05T05:49:12.816Z,98723.56
2022-11-05T05:51:41.745Z,98730.22
2022-11-05T05:54:12.992Z,98731.72
2022-11-05T05:56:43.760Z,98735.91
2022-11-05T05:59:12.775Z,98733.72
2022-11-05T06:01:43.202Z,98741.75
2022-11-05T06:04:12.307Z,98740.44
2022-11-05T06:06:42.107Z,98754.41
2022-11-05T06:09:10.931Z,98752.06
2022-11-05T06:11:39.544Z,98758.22
2022-11-05T06:14:11.193Z,98748.34
2022-11-05T06:16:40.160Z,98748.94
2022-11-05T06:19:12.339Z,98748.59
2022-11-05T06:21:41.042Z,98752.44
2022-11-05T06:24:10.549Z,98753.81
2022-11-05T06:26:42.989Z,98758.97
2022-11-05T06:29:11.739Z,98759.16
2022-11-05T06:31:40.581Z,98771.50
2022-11-05T06:34:11.565Z,98774.75
2022-11-05T06:36:41.460Z,98780.56
2022-11-05T06:39:12.412Z,98784.66
2022-11-05T06:44:30.079Z,98794.88
2022-11-05T06:46:59.211Z,98804.50
2022-11-05T06:55:34.104Z,98821.72
2022-11-05T06:58:03.469Z,98822.31
2022-11-05T07:00:32.925Z,98829.50
2022-11-05T07:03:06.393Z,98835.47
2022-11-05T07:05:39.971Z,98840.34
2022-11-05T07:08:08.741Z,98839.28
2022-11-05T07:10:38.997Z,98840.13
2022-11-05T07:13:09.548Z,98850.47
2022-11-05T07:15:38.971Z,98859.31
2022-11-05T07:18:08.458Z,98855.81
2022-11-05T07:20:38.574Z,98861.97
2022-11-05T07:23:11.821Z,98873.97
2022-11-05T07:25:45.744Z,98876.72
2022-11-05T07:28:15.223Z,98879.09
2022-11-05T07:30:45.510Z,98873.72
2022-11-05T07:33:36.322Z,98880.34
2022-11-05T07:36:07.490Z,98884.75
2022-11-05T07:38:47.297Z,98887.69
2022-11-05T07:41:32.832Z,98900.59
2022-11-05T07:44:04.219Z,98902.09
2022-11-05T07:46:33.212Z,98904.09
2022-11-05T07:49:03.170Z,98907.59
2022-11-05T07:51:31.957Z,98898.50
2022-11-05T07:54:04.006Z,98907.22
2022-11-05T07:56:34.024Z,98906.06
2022-11-05T07:59:03.696Z,98911.53
2022-11-05T08:01:32.584Z,98912.56
2022-11-05T08:04:01.515Z,98921.91
2022-11-05T08:06:31.275Z,98917.47
2022-11-05T08:09:01.027Z,98931.88
2022-11-05T08:11:30.782Z,98927.69
2022-11-05T08:14:01.623Z,98933.06
2022-11-05T08:16:30.508Z,98929.69
2022-11-05T08:18:59.214Z,98931.19
2022-11-05T08:21:28.888Z,98926.88
2022-11-05T08:23:58.553Z,98929.22
2022-11-05T08:26:27.270Z,98928.84
2022-11-05T08:31:52.544Z,98941.28
2022-11-05T08:34:21.241Z,98942.94
2022-11-05T08:36:50.073Z,98944.81
2022-11-05T08:39:19.975Z,98949.81
2022-11-05T08:41:48.624Z,98953.00
2022-11-05T08:44:17.521Z,98950.84
2022-11-05T08:46:46.374Z,98950.88
2022-11-05T08:49:16.883Z,98956.59
2022-11-05T08:51:46.248Z,98960.41
2022-11-05T08:54:15.063Z,98955.66
2022-11-05T08:56:43.729Z,98964.63
2022-11-05T08:59:12.363Z,98964.72
2022-11-05T09:01:42.567Z,98970.69
2022-11-05T09:04:11.533Z,98976.84
2022-11-05T09:06:41.596Z,98978.81
2022-11-05T09:09:10.211Z,98975.53
2022-11-05T09:12:10.081Z,98977.78
2022-11-05T09:14:27.753Z,98977.28
2022-11-05T09:16:57.580Z,98975.56
2022-11-05T09:19:26.543Z,98981.28
2022-11-05T09:21:58.452Z,98977.53
2022-11-05T09:24:28.656Z,98976.47
2022-11-05T09:26:57.426Z,98983.00
2022-11-05T09:29:26.745Z,98987.91
2022-11-05T09:31:56.729Z,98978.59
2022-11-05T09:34:25.664Z,98988.59
2022-11-05T09:36:55.759Z,98991.03
2022-11-05T09:39:24.398Z,98988.59
2022-11-05T09:41:57.418Z,98989.75
2022-11-05T09:44:37.041Z,98986.75
2022-11-05T09:47:14.097Z,98989.06
2022-11-05T09:49:50.122Z,98989.19
2022-11-05T09:52:25.040Z,98995.03
2022-11-05T09:54:55.675Z,98995.03
2022-11-05T09:57:34.082Z,98996.97
2022-11-05T10:00:07.151Z,98997.78
2022-11-05T10:02:43.697Z,99002.69
2022-11-05T10:05:14.915Z,99008.63
2022-11-05T10:07:51.206Z,99009.91
2022-11-05T10:10:40.838Z,99007.69
2022-11-05T10:13:26.612Z,99004.44
2022-11-05T10:16:08.778Z,99000.00
2022-11-05T10:18:41.278Z,99004.19
2022-11-05T10:21:32.264Z,99002.94
2022-11-05T10:24:16.858Z,99018.38
2022-11-05T10:26:50.560Z,99017.69
2022-11-05T10:29:27.686Z,99022.59
2022-11-05T10:32:01.471Z,99022.00
2022-11-05T10:34:35.483Z,99027.13
2022-11-05T10:37:05.702Z,99032.13
2022-11-05T10:39:36.513Z,99029.47
2022-11-05T10:42:40.145Z,99037.59
2022-11-05T10:45:27.080Z,99031.53
2022-11-05T10:48:27.583Z,99034.13
2022-11-05T10:50:57.001Z,99031.09
2022-11-05T10:53:33.591Z,99031.88
2022-11-05T10:56:04.598Z,99037.81
2022-11-05T10:58:35.596Z,99027.91
2022-11-05T11:01:12.463Z,99031.31
2022-11-05T11:03:47.490Z,99035.13
2022-11-05T11:06:28.600Z,99035.72
2022-11-05T11:09:02.977Z,99036.63
2022-11-05T11:11:39.195Z,99035.34
2022-11-05T11:14:22.394Z,99043.66
2022-11-05T11:16:57.223Z,99040.47
2022-11-05T11:19:30.501Z,99044.91
2022-11-05T11:22:21.918Z,99043.03
2022-11-05T11:24:54.134Z,99043.84
2022-11-05T11:27:32.918Z,99051.31
2022-11-05T11:30:05.538Z,99046.72
2022-11-05T11:32:38.825Z,99049.84
2022-11-05T11:35:20.407Z,99044.78
2022-11-05T11:37:52.990Z,99049.09
2022-11-05T11:40:27.488Z,99048.63
2022-11-05T11:43:01.995Z,99048.69
2022-11-05T11:45:35.744Z,99046.41
2022-11-05T11:48:08.318Z,99043.63
2022-11-05T11:50:43.613Z,99044.03
2022-11-05T11:53:35.752Z,99047.94
2022-11-05T11:56:15.856Z,99037.81
2022-11-05T11:58:49.657Z,99041.72
2022-11-05T12:01:52.279Z,99048.03
2022-11-05T12:04:51.498Z,99047.28
2022-11-05T12:07:46.186Z,99055.94
2022-11-05T12:10:34.281Z,99046.97
2022-11-05T12:13:33.429Z,99050.53
2022-11-05T12:16:19.003Z,99052.31
2022-11-05T12:19:03.889Z,99042.84
2022-11-05T12:21:53.070Z,99048.56
2022-11-05T12:25:06.930Z,99047.59
2022-11-05T12:28:11.683Z,99045.25
2022-11-05T12:30:57.012Z,99041.41
2022-11-05T12:33:48.799Z,99049.28
2022-11-05T12:36:37.973Z,99051.31
2022-11-05T12:39:32.839Z,99051.34
2022-11-05T12:42:10.316Z,99059.41
2022-11-05T12:45:03.601Z,99057.03
2022-11-05T12:48:02.509Z,99061.44
2022-11-05T12:50:43.695Z,99063.13
2022-11-05T12:53:52.149Z,99061.06
2022-11-05T12:56:36.241Z,99067.34
2022-11-05T12:59:25.775Z,99059.44
2022-11-05T13:02:03.276Z,99055.28
2022-11-05T13:04:45.097Z,99062.59
2022-11-05T13:07:29.083Z,99056.53
2022-11-05T13:10:07.341Z,99061.31
2022-11-05T13:12:43.567Z,99062.72
2022-11-05T13:15:23.709Z,99063.66
2022-11-05T13:17:56.773Z,99061.94
2022-11-05T13:20:31.516Z,99067.03
2022-11-05T13:23:08.148Z,99064.03
2022-11-05T13:25:47.576Z,99062.41
2022-11-05T13:28:31.684Z,99067.28
2022-11-05T13:31:07.091Z,99079.53
2022-11-05T13:36:46.308Z,99081.03
2022-11-05T13:39:24.030Z,99079.97
2022-11-05T13:42:29.343Z,99085.56
2022-11-05T13:46:05.387Z,99101.84
2022-11-05T13:49:30.328Z,99095.31
2022-11-05T13:52:12.862Z,99103.81
2022-11-05T13:55:37.738Z,99099.75
2022-11-05T13:58:48.541Z,99110.00
2022-11-05T14:01:39.414Z,99113.06
2022-11-05T14:04:21.504Z,99110.13
2022-11-05T14:06:50.515Z,99109.31
2022-11-05T14:09:26.358Z,99105.13
2022-11-05T14:12:00.380Z,99109.44
2022-11-05T14:14:35.371Z,99104.63
2022-11-05T14:17:27.781Z,99113.50
2022-11-05T14:20:48.224Z,99110.66
2022-11-05T14:23:40.600Z,99110.34
2022-11-05T14:26:24.293Z,99106.25
2022-11-05T14:29:40.685Z,99106.50
2022-11-05T14:32:42.218Z,99115.13
2022-11-05T14:35:38.152Z,99116.06
2022-11-05T14:38:19.264Z,99110.75
2022-11-05T14:40:49.080Z,99110.28
2022-11-05T14:43:25.741Z,99109.03
2022-11-05T14:46:01.295Z,99108.09
2022-11-05T14:48:40.521Z,99120.06
2022-11-05T14:51:27.847Z,99125.66
2022-11-05T14:54:05.999Z,99125.06
2022-11-05T14:56:45.487Z,99125.19
2022-11-05T14:59:53.328Z,99132.13
2022-11-05T15:02:29.531Z,99140.00
2022-11-05T15:05:37.973Z,99138.44
2022-11-05T15:08:38.611Z,99142.97
2022-11-05T15:11:17.345Z,99147.28
2022-11-05T15:14:04.040Z,99145.28
2022-11-05T15:16:41.649Z,99145.25
2022-11-05T15:19:21.653Z,99149.00
2022-11-05T15:21:53.345Z,99155.09
2022-11-05T15:24:23.820Z,99155.09
2022-11-05T15:27:04.805Z,99162.09
2022-11-05T15:29:34.844Z,99164.19
2022-11-05T15:32:04.143Z,99166.13
2022-11-05T15:34:36.557Z,99169.03
2022-11-05T15:37:22.788Z,99168.94
2022-11-05T15:39:54.054Z,99169.59
2022-11-05T15:42:26.062Z,99169.81
2022-11-05T15:44:57.755Z,99169.09
2022-11-05T15:47:28.480Z,99168.47
2022-11-05T15:50:01.418Z,99183.75
2022-11-05T15:52:36.477Z,99173.88
2022-11-05T15:55:20.143Z,99173.94
2022-11-05T15:57:51.761Z,99174.34
2022-11-05T16:00:24.554Z,99185.03
2022-11-05T16:02:58.670Z,99188.06
2022-11-05T16:05:36.345Z,99187.25
2022-11-05T16:08:05.959Z,99188.19
2022-11-05T16:10:39.341Z,99195.78
2022-11-05T16:13:39.561Z,99192.25
2022-11-05T16:16:34.407Z,99190.56
2022-11-05T16:19:03.917Z,99198.97
2022-11-05T16:21:55.655Z,99191.94
2022-11-05T16:24:29.300Z,99192.19
2022-11-05T16:27:03.861Z,99198.22
2022-11-05T16:29:36.441Z,99196.41
2022-11-05T16:32:15.010Z,99212.81
2022-11-05T16:34:50.388Z,99209.78
2022-11-05T16:37:26.566Z,99214.75
2022-11-05T16:39:55.743Z,99216.81
2022-11-05T16:42:48.752Z,99215.81
2022-11-05T16:45:21.743Z,99220.16
2022-11-05T16:47:50.850Z,99222.44
2022-11-05T16:50:24.889Z,99230.59
2022-11-05T16:52:55.131Z,99230.19
2022-11-05T16:55:24.003Z,99225.50
2022-11-05T16:57:55.759Z,99229.00
2022-11-05T17:00:26.348Z,99226.97
2022-11-05T17:02:55.600Z,99223.03
2022-11-05T17:05:39.693Z,99228.38
2022-11-05T17:08:10.109Z,99232.56
2022-11-05T17:10:39.360Z,99233.78
2022-11-05T17:13:07.944Z,99230.38
2022-11-05T17:15:36.655Z,99234.69
2022-11-05T17:18:06.943Z,99239.56
2022-11-05T17:20:41.024Z,99234.22
2022-11-05T17:23:14.907Z,99245.16
2022-11-05T17:25:48.611Z,99239.22
2022-11-05T17:28:18.463Z,99246.00
2022-11-05T17:30:53.005Z,99240.03
2022-11-05T17:33:23.951Z,99250.94
2022-11-05T17:35:54.093Z,99249.06
2022-11-05T17:38:27.166Z,99252.34
2022-11-05T17:40:56.348Z,99253.59
2022-11-05T17:43:25.899Z,99253.19
2022-11-05T17:46:00.018Z,99252.75
2022-11-05T17:48:32.339Z,99257.69
2022-11-05T17:51:01.937Z,99260.56
2022-11-05T17:53:32.953Z,99265.91
2022-11-05T17:56:01.834Z,99271.63
2022-11-05T17:58:31.155Z,99272.25
2022-11-05T18:01:00.977Z,99271.63
2022-11-05T18:03:30.580Z,99274.72
2022-11-05T18:06:04.110Z,99271.63
2022-11-05T18:08:35.583Z,99283.53
2022-11-05T18:11:07.532Z,99279.63
2022-11-05T18:13:36.527Z,99279.00
2022-11-05T18:16:06.159Z,99287.97
2022-11-05T18:18:36.107Z,99285.94
2022-11-05T18:21:06.857Z,99289.22
2022-11-05T18:23:38.353Z,99283.53
2022-11-05T18:26:14.777Z,99283.91
2022-11-05T18:28:46.310Z,99281.47
2022-11-05T18:31:21.815Z,99293.34
2022-11-05T18:33:53.486Z,99292.53
2022-11-05T18:36:28.374Z,99286.78
2022-11-05T18:39:03.966Z,99300.69
2022-11-05T18:41:34.428Z,99300.31
2022-11-05T18:44:07.355Z,99305.41
2022-11-05T18:46:57.629Z,99310.88
2022-11-05T18:49:28.664Z,99309.22
2022-11-05T18:51:59.007Z,99312.34
2022-11-05T18:54:33.962Z,99306.81
2022-11-05T18:57:03.623Z,99310.13
2022-11-05T18:59:39.009Z,99305.81
2022-11-05T19:02:12.534Z,99309.72
2022-11-05T19:05:00.719Z,99310.53
2022-11-05T19:07:37.960Z,99302.53
2022-11-05T19:10:13.380Z,99303.19
2022-11-05T19:12:43.681Z,99306.44
2022-11-05T19:15:13.567Z,99307.22
2022-11-05T19:17:42.676Z,99302.25
2022-11-05T19:20:12.761Z,99305.94
2022-11-05T19:22:41.482Z,99309.16
2022-11-05T19:25:11.854Z,99312.84
2022-11-05T19:27:42.649Z,99299.13
2022-11-05T19:30:12.830Z,99308.97
2022-11-05T19:32:41.781Z,99306.75
2022-11-05T19:35:10.995Z,99311.50
2022-11-05T19:37:39.828Z,99309.22
2022-11-05T19:40:12.785Z,99307.09
2022-11-05T19:42:44.448Z,99311.97
2022-11-05T19:45:42.845Z,99316.44
2022-11-05T19:48:03.213Z,99320.91
2022-11-05T19:50:32.366Z,99315.13
2022-11-05T19:53:01.470Z,99319.44
2022-11-05T19:55:31.752Z,99321.69
2022-11-05T19:58:00.695Z,99327.88
2022-11-05T20:00:29.652Z,99319.75
2022-11-05T20:03:00.456Z,99320.72
2022-11-05T20:05:29.763Z,99327.47
2022-11-05T20:07:58.745Z,99328.50
2022-11-05T20:10:28.152Z,99328.28
2022-11-05T20:12:58.286Z,99330.16
2022-11-05T20:15:27.099Z,99332.56
2022-11-05T20:17:56.602Z,99337.06
2022-11-05T20:20:26.156Z,99337.25
2022-11-05T20:22:55.459Z,99333.13
2022-11-05T20:25:24.324Z,99333.16
2022-11-05T20:27:53.390Z,99346.03
2022-11-05T20:30:26.815Z,99350.56
2022-11-05T20:32:57.177Z,99348.13
2022-11-05T20:35:27.027Z,99351.41
2022-11-05T20:37:56.640Z,99355.69
2022-11-05T20:40:26.071Z,99356.78
2022-11-05T20:42:55.398Z,99354.00
2022-11-05T20:45:25.599Z,99355.06
2022-11-05T20:47:56.200Z,99354.00
2022-11-05T20:50:25.497Z,99361.72
2022-11-05T20:52:54.331Z,99364.41
2022-11-05T20:55:24.764Z,99358.56
2022-11-05T20:57:53.438Z,99361.06
2022-11-05T21:00:23.130Z,99355.09
2022-11-05T21:02:53.672Z,99356.72
2022-11-05T21:05:22.381Z,99359.31
2022-11-05T21:07:50.968Z,99349.19
2022-11-05T21:10:19.691Z,99350.88
2022-11-05T21:12:48.435Z,99349.00
2022-11-05T21:15:20.449Z,99343.94
2022-11-05T21:17:49.292Z,99344.38
2022-11-05T21:20:19.643Z,99339.63
2022-11-05T21:22:48.431Z,99348.94
2022-11-05T21:25:17.338Z,99353.19
2022-11-05T21:27:46.086Z,99359.56
2022-11-05T21:30:15.550Z,99359.31
2022-11-05T21:32:44.409Z,99368.16
2022-11-05T21:35:13.096Z,99359.44
2022-11-05T21:37:43.351Z,99362.28
2022-11-05T21:40:13.441Z,99368.47
2022-11-05T21:42:42.220Z,99368.03
2022-11-05T21:45:12.400Z,99364.22
2022-11-05T21:47:41.141Z,99365.25
2022-11-05T21:50:10.967Z,99365.66
2022-11-05T21:52:57.147Z,99363.25
2022-11-05T21:55:44.581Z,99366.84
2022-11-05T21:58:34.140Z,99363.50
2022-11-05T22:01:04.072Z,99357.47
2022-11-05T22:03:32.741Z,99362.47
2022-11-05T22:06:01.414Z,99360.25
2022-11-05T22:08:30.039Z,99358.66
2022-11-05T22:11:00.018Z,99361.31
2022-11-05T22:13:28.807Z,99353.97
2022-11-05T22:15:57.730Z,99350.84
2022-11-05T22:18:26.418Z,99357.94
2022-11-05T22:20:55.025Z,99349.66
2022-11-05T22:23:23.646Z,99352.69
2022-11-05T22:25:59.105Z,99350.06
2022-11-05T22:28:29.126Z,99352.00
2022-11-05T22:30:57.817Z,99349.44
2022-11-05T22:33:26.445Z,99347.53
2022-11-05T22:35:55.132Z,99352.50
2022-11-05T22:38:23.719Z,99348.06
2022-11-05T22:40:52.314Z,99344.63
2022-11-05T22:43:20.897Z,99342.38
2022-11-05T22:45:51.011Z,99344.88
2022-11-05T22:48:19.563Z,99347.41
2022-11-05T22:50:48.171Z,99344.13
2022-11-05T22:53:16.766Z,99341.78
2022-11-05T22:55:45.432Z,99344.41
2022-11-05T22:58:14.618Z,99335.97
2022-11-05T23:00:43.566Z,99341.63
2022-11-05T23:03:14.163Z,99338.19
2022-11-05T23:05:43.016Z,99338.09
2022-11-05T23:08:28.836Z,99339.31
2022-11-05T23:11:23.202Z,99342.16
2022-11-05T23:13:51.793Z,99344.34
2022-11-05T23:16:37.656Z,99345.38
2022-11-05T23:19:25.146Z,99346.47
2022-11-05T23:22:13.445Z,99347.13
2022-11-05T23:24:42.086Z,99346.44
2022-11-05T23:27:10.835Z,99357.63
2022-11-05T23:29:39.648Z,99342.97
2022-11-05T23:32:27.184Z,99345.97
2022-11-05T23:34:59.838Z,99347.00
2022-11-05T23:37:48.301Z,99343.34
2022-11-05T23:40:24.378Z,99345.09
2022-11-05T23:43:10.876Z,99341.56
2022-11-05T23:45:58.992Z,99345.16
2022-11-05T23:48:33.703Z,99341.34
2022-11-05T23:51:06.803Z,99353.88
2022-11-05T23:53:39.443Z,99355.09
2022-11-05T23:56:12.322Z,99354.03
2022-11-05T23:58:43.133Z,99358.41
